Time;durP1;ratioP1;P1;durP2;ratioP2;P2;SDS_P1;SDS_P2;PMS_P1;PMS_P2;Temp;Humidity;BMP_temperature;BMP_pressure;BME280_temperature;BME280_humidity;BME280_pressure;Samples;Min_cycle;Max_cycle;Signal;HPM_P1;HPM_P2
2022/02/07 00:00:21;;;;;;;;;;;;;;;0.96;100.00;98034.59;1820931;78;20154;-69
2022/02/07 00:05:30;;;;;;;;;;;;;;;1.01;100.00;98027.30;1818797;78;21187;-69
2022/02/07 00:07:57;;;;;;;;;;;;;;;1.01;100.00;98022.81;1819239;78;20141;-69
2022/02/07 00:10:24;;;;;;;;;;;;;;;0.99;100.00;98022.23;1822018;78;20117;-69
2022/02/07 00:12:52;;;;;;;;;;;;;;;0.98;100.00;98021.13;1817504;78;20109;-69
2022/02/07 00:15:19;;;;;;;;;;;;;;;1.01;100.00;98022.02;1822952;78;20415;-69
2022/02/07 00:17:47;;;;;;;;;;;;;;;1.02;100.00;98018.33;1823208;78;21074;-69
2022/02/07 00:20:18;;;;;;;;;;;;;;;1.03;100.00;98014.67;1823299;78;20078;-70
2022/02/07 00:22:44;;;;;;;;;;;;;;;1.04;100.00;98010.98;1823373;78;20078;-68
2022/02/07 00:25:14;;;;;;;;;;;;;;;1.05;100.00;98004.16;1818351;78;20444;-70
2022/02/07 00:27:42;;;;;;;;;;;;;;;1.05;100.00;98005.97;1823597;78;20152;-70
2022/02/07 00:30:11;;;;;;;;;;;;;;;1.04;100.00;97991.16;1777612;79;21142;-67
2022/02/07 00:32:37;;;;;;;;;;;;;;;1.04;100.00;97991.16;1823567;78;20446;-68
2022/02/07 00:35:06;;;;;;;;;;;;;;;1.03;100.00;97979.00;1821708;78;20082;-68
2022/02/07 00:37:34;;;;;;;;;;;;;;;1.03;100.00;97971.07;1824012;78;20081;-68
2022/02/07 00:40:16;;;;;;;;;;;;;;;1.06;100.00;97967.44;1824174;78;20141;-68
2022/02/07 00:42:33;;;;;;;;;;;;;;;1.07;100.00;97944.45;1818205;78;21168;-69
2022/02/07 00:45:12;;;;;;;;;;;;;;;1.08;100.00;97954.00;1824760;78;20407;-69
2022/02/07 00:47:29;;;;;;;;;;;;;;;1.07;100.00;97943.13;1818526;78;20134;-70
2022/02/07 00:49:57;;;;;;;;;;;;;;;1.07;100.00;97941.28;1823919;78;20120;-70
2022/02/07 00:52:24;;;;;;;;;;;;;;;1.08;100.00;97940.80;1823706;78;20102;-69
2022/02/07 00:54:55;;;;;;;;;;;;;;;1.11;100.00;97942.17;1823794;78;21209;-69
2022/02/07 00:57:24;;;;;;;;;;;;;;;1.11;100.00;97926.31;1823409;78;20121;-67
2022/02/07 00:59:50;;;;;;;;;;;;;;;1.13;100.00;97932.97;1823914;78;20077;-67
2022/02/07 01:02:17;;;;;;;;;;;;;;;1.16;100.00;97923.77;1824659;78;20148;-69
2022/02/07 01:04:44;;;;;;;;;;;;;;;1.17;100.00;97915.59;1800323;78;20440;-68
2022/02/07 01:07:11;;;;;;;;;;;;;;;1.21;100.00;97918.59;1823520;78;21969;-67
2022/02/07 01:09:45;;;;;;;;;;;;;;;1.22;100.00;97902.48;1825404;78;20094;-69
2022/02/07 01:12:38;;;;;;;;;;;;;;;1.24;100.00;97907.55;1774801;81;20162;-68
2022/02/07 01:15:19;;;;;;;;;;;;;;;1.20;100.00;97892.69;1769929;80;20464;-68
2022/02/07 01:48:09;;;;;;;;;;;;;;;1.43;100.00;97856.64;1791065;80;21794;-68
2022/02/07 01:53:03;;;;;;;;;;;;;;;1.56;100.00;97841.80;1786335;80;20493;-68
2022/02/07 01:57:59;;;;;;;;;;;;;;;1.57;100.00;97842.59;1785382;80;20255;-67
2022/02/07 02:00:27;;;;;;;;;;;;;;;1.57;100.00;97842.09;1784281;80;21879;-69
2022/02/07 02:02:55;;;;;;;;;;;;;;;1.61;100.00;97841.09;1791083;80;20096;-66
2022/02/07 02:05:23;;;;;;;;;;;;;;;1.63;100.00;97833.72;1786978;80;20441;-68
2022/02/07 02:07:51;;;;;;;;;;;;;;;1.60;100.00;97832.36;1792108;80;20096;-68
2022/02/07 02:10:19;;;;;;;;;;;;;;;1.63;100.00;97821.30;1790015;80;20112;-69
2022/02/07 02:13:06;;;;;;;;;;;;;;;1.63;100.00;97821.82;1785482;79;21149;-68
2022/02/07 02:37:20;;;;;;;;;;;;;;;1.18;100.00;97775.83;1779981;80;20164;-69
2022/02/07 02:45:31;;;;;;;;;;;;;;;1.17;100.00;97765.48;1790750;80;20120;-68
2022/02/07 02:48:02;;;;;;;;;;;;;;;1.20;100.00;97765.00;1790929;80;20123;-68
2022/02/07 02:50:35;;;;;;;;;;;;;;;1.21;100.00;97769.27;1787662;80;20186;-67
2022/02/07 02:53:10;;;;;;;;;;;;;;;1.19;100.00;97772.66;1784550;80;21163;-68
2022/02/07 02:55:39;;;;;;;;;;;;;;;1.20;100.00;97771.61;1782790;80;20180;-68
2022/02/07 02:58:08;;;;;;;;;;;;;;;1.22;100.00;97772.97;1785749;80;20151;-69
2022/02/07 03:00:35;;;;;;;;;;;;;;;1.27;100.00;97772.27;1783331;80;20075;-67
2022/02/07 03:03:03;;;;;;;;;;;;;;;1.24;100.00;97767.46;1783677;80;20084;-69
2022/02/07 03:05:30;;;;;;;;;;;;;;;1.21;100.00;97756.84;1780966;80;20914;-68
2022/02/07 03:07:57;;;;;;;;;;;;;;;1.17;100.00;97757.02;1784643;80;20190;-68
2022/02/07 03:18:14;;;;;;;;;;;;;;;0.95;100.00;97700.61;1783762;80;21039;-69
2022/02/07 03:20:41;;;;;;;;;;;;;;;0.91;100.00;97728.03;1785300;80;20084;-68
2022/02/07 03:23:09;;;;;;;;;;;;;;;0.84;100.00;97718.12;1781684;80;20080;-69
2022/02/07 03:25:36;;;;;;;;;;;;;;;0.76;100.00;97715.34;1786226;80;20139;-67
2022/02/07 03:28:04;;;;;;;;;;;;;;;0.71;100.00;97707.82;1783194;80;20124;-67
2022/02/07 03:30:34;;;;;;;;;;;;;;;0.66;100.00;97701.13;1782209;79;21346;-68
2022/02/07 03:33:00;;;;;;;;;;;;;;;0.57;100.00;97693.58;1787307;79;20082;-67
2022/02/07 03:35:28;;;;;;;;;;;;;;;0.50;100.00;97695.55;1784101;79;20135;-67
2022/02/07 03:37:55;;;;;;;;;;;;;;;0.39;100.00;97695.88;1781673;80;20419;-68
2022/02/07 03:40:22;;;;;;;;;;;;;;;0.28;100.00;97690.63;1787224;80;20084;-70
2022/02/07 03:42:49;;;;;;;;;;;;;;;0.16;100.00;97665.58;1784807;80;21205;-68
2022/02/07 03:45:16;;;;;;;;;;;;;;;0.08;100.00;97671.22;1783100;80;20095;-69
2022/02/07 03:47:50;;;;;;;;;;;;;;;0.00;100.00;97671.06;1784194;79;20148;-69
2022/02/07 03:50:18;;;;;;;;;;;;;;;-0.07;100.00;97658.52;1786562;79;20693;-71
2022/02/07 03:52:47;;;;;;;;;;;;;;;-0.09;100.00;97653.98;1785180;80;20155;-68
2022/02/07 03:55:15;;;;;;;;;;;;;;;-0.11;100.00;97647.61;1780885;80;21099;-69
2022/02/07 03:57:42;;;;;;;;;;;;;;;-0.13;100.00;97638.33;1784848;80;20084;-68
2022/02/07 04:00:11;;;;;;;;;;;;;;;-0.15;100.00;97645.14;1785458;78;20167;-69
2022/02/07 04:02:47;;;;;;;;;;;;;;;-0.18;100.00;97642.97;1777868;79;20127;-69
2022/02/07 04:05:43;;;;;;;;;;;;;;;-0.17;100.00;97649.04;1770478;79;20226;-69
2022/02/07 04:08:02;;;;;;;;;;;;;;;-0.18;100.00;97644.81;1783312;80;21989;-70
2022/02/07 04:10:38;;;;;;;;;;;;;;;-0.18;100.00;97636.90;1787510;80;20430;-69
2022/02/07 04:13:03;;;;;;;;;;;;;;;-0.22;100.00;97630.78;1785976;80;20413;-72
2022/02/07 04:15:30;;;;;;;;;;;;;;;-0.20;100.00;97634.48;1789927;80;20457;-69
2022/02/07 04:18:02;;;;;;;;;;;;;;;-0.17;100.00;97636.68;1784997;80;20158;-70
2022/02/07 04:20:26;;;;;;;;;;;;;;;-0.16;100.00;97636.95;1779604;80;20626;-69
2022/02/07 04:22:53;;;;;;;;;;;;;;;-0.14;100.00;97643.33;1778909;80;20147;-69
2022/02/07 04:25:30;;;;;;;;;;;;;;;-0.13;100.00;97642.28;1776841;80;20084;-69
2022/02/07 04:27:58;;;;;;;;;;;;;;;-0.10;100.00;97657.14;1776597;80;20135;-68
2022/02/07 04:30:27;;;;;;;;;;;;;;;-0.09;100.00;97651.34;1785142;80;20218;-68
2022/02/07 04:32:53;;;;;;;;;;;;;;;-0.08;100.00;97652.94;1778748;80;21076;-69
2022/02/07 04:35:21;;;;;;;;;;;;;;;-0.01;100.00;97652.30;1788342;80;20434;-69
2022/02/07 04:37:47;;;;;;;;;;;;;;;0.04;100.00;97660.31;1782233;80;20123;-69
2022/02/07 04:40:13;;;;;;;;;;;;;;;0.07;100.00;97668.28;1778307;80;20068;-69
2022/02/07 04:42:42;;;;;;;;;;;;;;;0.08;100.00;97664.10;1791148;80;20423;-69
2022/02/07 04:58:01;;;;;;;;;;;;;;;0.24;100.00;97650.69;1790698;80;22020;-68
2022/02/07 05:03:06;;;;;;;;;;;;;;;0.23;100.00;97642.50;1769774;79;20202;-69
2022/02/07 05:13:50;;;;;;;;;;;;;;;0.30;100.00;97632.62;1725653;83;20135;-68
2022/02/07 05:16:22;;;;;;;;;;;;;;;0.28;100.00;97645.23;1672034;86;20663;-68
2022/02/07 05:18:52;;;;;;;;;;;;;;;0.26;100.00;97641.23;1672096;86;20089;-68
2022/02/07 05:21:27;;;;;;;;;;;;;;;0.24;100.00;97647.25;1661502;85;20204;-67
2022/02/07 05:24:10;;;;;;;;;;;;;;;0.21;100.00;97655.91;1621313;88;21197;-68
2022/02/07 05:26:39;;;;;;;;;;;;;;;0.23;100.00;97644.34;1607915;88;20275;-68
2022/02/07 05:29:13;;;;;;;;;;;;;;;0.20;100.00;97635.86;1650779;85;20148;-67
2022/02/07 05:31:47;;;;;;;;;;;;;;;0.18;100.00;97649.80;1678811;85;20188;-67
2022/02/07 05:34:25;;;;;;;;;;;;;;;0.17;100.00;97652.66;1649433;85;20220;-68
2022/02/07 05:36:57;;;;;;;;;;;;;;;0.15;100.00;97642.35;1680556;85;21170;-68
2022/02/07 05:39:32;;;;;;;;;;;;;;;0.15;100.00;97640.23;1679313;85;20116;-69
2022/02/07 05:42:03;;;;;;;;;;;;;;;0.12;100.00;97646.78;1676336;85;20098;-68
2022/02/07 05:44:47;;;;;;;;;;;;;;;0.11;100.00;97648.33;1674904;85;20156;-68
2022/02/07 05:47:24;;;;;;;;;;;;;;;0.10;100.00;97644.06;1708217;82;20176;-68
2022/02/07 05:49:52;;;;;;;;;;;;;;;0.07;100.00;97648.49;1711147;84;21173;-68
2022/02/07 05:52:24;;;;;;;;;;;;;;;0.06;100.00;97654.30;1708431;82;20277;-68
2022/02/07 05:54:53;;;;;;;;;;;;;;;0.05;100.00;97653.20;1711039;84;20124;-68
2022/02/07 05:57:33;;;;;;;;;;;;;;;0.04;100.00;97659.00;1691875;81;20149;-67
2022/02/07 06:00:06;;;;;;;;;;;;;;;0.02;100.00;97655.78;1755982;81;20145;-68
2022/02/07 06:02:41;;;;;;;;;;;;;;;-0.01;100.00;97660.21;1781452;79;21944;-67
2022/02/07 06:05:11;;;;;;;;;;;;;;;-0.04;100.00;97658.84;1772680;81;20090;-68
2022/02/07 06:07:38;;;;;;;;;;;;;;;-0.02;100.00;97654.66;1778595;80;20198;-66
2022/02/07 06:10:07;;;;;;;;;;;;;;;-0.03;100.00;97655.16;1771865;80;20080;-66
2022/02/07 06:12:40;;;;;;;;;;;;;;;-0.01;100.00;97648.34;1785810;80;20119;-68
2022/02/07 06:15:08;;;;;;;;;;;;;;;-0.01;100.00;97649.13;1787568;79;20983;-69
2022/02/07 06:17:39;;;;;;;;;;;;;;;0.00;100.00;97652.59;1784917;79;20118;-66
2022/02/07 06:20:09;;;;;;;;;;;;;;;-0.01;100.00;97632.52;1785630;79;20139;-68
2022/02/07 06:22:36;;;;;;;;;;;;;;;0.01;100.00;97642.32;1781210;79;20115;-70
2022/02/07 06:25:04;;;;;;;;;;;;;;;0.00;100.00;97642.05;1748411;80;20219;-67
2022/02/07 06:27:31;;;;;;;;;;;;;;;0.02;100.00;97634.68;1748776;81;21175;-67
2022/02/07 06:30:03;;;;;;;;;;;;;;;0.01;100.00;97632.30;1749318;80;20146;-66
2022/02/07 06:32:31;;;;;;;;;;;;;;;0.03;100.00;97632.34;1751117;81;20227;-68
2022/02/07 06:35:00;;;;;;;;;;;;;;;0.06;100.00;97626.59;1749244;80;20167;-69
2022/02/07 06:37:34;;;;;;;;;;;;;;;0.08;100.00;97618.45;1748968;80;20192;-68
2022/02/07 06:40:02;;;;;;;;;;;;;;;0.12;100.00;97623.04;1743800;82;21144;-68
2022/02/07 06:42:30;;;;;;;;;;;;;;;0.15;100.00;97619.92;1744037;82;20202;-66
2022/02/07 06:44:58;;;;;;;;;;;;;;;0.18;100.00;97623.94;1712801;83;20563;-65
2022/02/07 06:47:28;;;;;;;;;;;;;;;0.22;100.00;97629.01;1748276;81;20157;-66
2022/02/07 06:49:56;;;;;;;;;;;;;;;0.21;100.00;97624.78;1753772;81;20178;-66
2022/02/07 06:52:22;;;;;;;;;;;;;;;0.21;100.00;97622.14;1755839;81;21166;-66
2022/02/07 06:54:50;;;;;;;;;;;;;;;0.21;100.00;97621.61;1754497;81;20116;-67
2022/02/07 06:57:19;;;;;;;;;;;;;;;0.23;100.00;97621.39;1756720;81;20097;-67
2022/02/07 07:00:20;;;;;;;;;;;;;;;0.24;100.00;97617.70;1764268;81;20082;-68
2022/02/07 07:02:54;;;;;;;;;;;;;;;0.23;100.00;97617.44;1755005;81;20143;-66
2022/02/07 07:06:05;;;;;;;;;;;;;;;0.25;100.00;97614.58;1756154;81;21837;-68
2022/02/07 07:08:38;;;;;;;;;;;;;;;0.25;100.00;97618.01;1754762;81;20462;-68
2022/02/07 07:11:10;;;;;;;;;;;;;;;0.24;100.00;97597.12;1749688;81;20177;-70
2022/02/07 07:13:47;;;;;;;;;;;;;;;0.27;100.00;97603.23;1755636;81;20202;-69
2022/02/07 07:16:55;;;;;;;;;;;;;;;0.29;100.00;97607.25;1766868;80;20112;-69
2022/02/07 07:18:45;;;;;;;;;;;;;;;0.32;100.00;97610.76;1743329;80;21175;-69
2022/02/07 07:21:12;;;;;;;;;;;;;;;0.31;100.00;97603.86;1771440;80;20078;-69
2022/02/07 07:23:43;;;;;;;;;;;;;;;0.34;100.00;97617.92;1770926;80;20086;-68
2022/02/07 07:26:30;;;;;;;;;;;;;;;;;;;;;
2022/02/07 07:28:53;;;;;;;;;;;;;;;0.34;100.00;97612.65;1757465;80;20100;-69
2022/02/07 07:31:26;;;;;;;;;;;;;;;0.34;100.00;97598.63;1763056;80;20558;-69
2022/02/07 07:34:20;;;;;;;;;;;;;;;0.34;100.00;97597.31;1762901;80;20148;-71
2022/02/07 07:36:48;;;;;;;;;;;;;;;0.34;100.00;97596.81;1641207;85;20152;-69
2022/02/07 07:39:21;;;;;;;;;;;;;;;0.35;100.00;97593.66;1652723;86;20162;-69
2022/02/07 07:41:51;;;;;;;;;;;;;;;0.35;100.00;97591.80;1615530;88;20153;-70
2022/02/07 07:44:30;;;;;;;;;;;;;;;0.36;100.00;97599.99;1643560;86;20096;-70
2022/02/07 07:47:13;;;;;;;;;;;;;;;0.38;100.00;97597.12;1640476;87;20131;-70
2022/02/07 07:50:11;;;;;;;;;;;;;;;0.40;100.00;97599.02;1565134;91;20183;-70
2022/02/07 08:01:27;;;;;;;;;;;;;;;0.61;100.00;97588.30;1567071;91;20165;-66
2022/02/07 08:03:51;;;;;;;;;;;;;;;0.72;100.00;97587.97;1566042;89;20169;-69
2022/02/07 08:06:24;;;;;;;;;;;;;;;0.82;100.00;97591.57;1567791;89;20230;-70
2022/02/07 08:09:18;;;;;;;;;;;;;;;0.92;100.00;97600.19;1590397;88;20221;-68
2022/02/07 08:11:35;;;;;;;;;;;;;;;1.00;100.00;97598.46;1592062;89;20088;-69
2022/02/07 08:14:06;;;;;;;;;;;;;;;1.04;100.00;97596.95;1591833;89;20167;-68
2022/02/07 08:16:36;;;;;;;;;;;;;;;1.09;100.00;97600.20;1591364;89;20213;-70
2022/02/07 08:19:07;;;;;;;;;;;;;;;1.18;100.00;97601.41;1593425;89;20172;-68
2022/02/07 08:21:35;;;;;;;;;;;;;;;1.24;100.00;97603.59;1597223;89;20254;-69
2022/02/07 08:24:03;;;;;;;;;;;;;;;1.27;100.00;97603.94;1613973;86;21153;-67
2022/02/07 08:26:31;;;;;;;;;;;;;;;1.33;100.00;97598.20;1674053;83;20137;-70
2022/02/07 08:28:58;;;;;;;;;;;;;;;1.37;100.00;97590.07;1702244;82;20230;-68
2022/02/07 08:31:25;;;;;;;;;;;;;;;1.40;100.00;97601.47;1715440;82;20102;-69
2022/02/07 08:33:51;;;;;;;;;;;;;;;1.41;100.00;97593.02;1715428;83;20141;-68
2022/02/07 08:36:18;;;;;;;;;;;;;;;1.43;100.00;97604.16;1739185;80;21150;-69
2022/02/07 08:38:45;;;;;;;;;;;;;;;1.46;100.00;97603.13;1752268;80;20150;-69
2022/02/07 08:41:11;;;;;;;;;;;;;;;1.51;100.00;97607.70;1779702;80;20156;-69
2022/02/07 08:43:38;;;;;;;;;;;;;;;1.52;100.00;97604.03;1747482;80;20120;-72
2022/02/07 08:46:04;;;;;;;;;;;;;;;1.54;100.00;97612.50;1748452;80;20171;-66
2022/02/07 08:48:31;;;;;;;;;;;;;;;1.54;100.00;97610.38;1748219;80;21148;-69
2022/02/07 08:50:58;;;;;;;;;;;;;;;1.54;100.00;97615.14;1747807;82;20116;-72
2022/02/07 08:53:30;;;;;;;;;;;;;;;1.58;100.00;97611.50;1745047;82;20132;-71
2022/02/07 08:55:54;;;;;;;;;;;;;;;1.60;100.00;97622.11;1744396;82;21936;-70
2022/02/07 08:58:24;;;;;;;;;;;;;;;1.66;100.00;97621.66;1744957;82;20434;-72
2022/02/07 09:01:05;;;;;;;;;;;;;;;1.68;100.00;97620.37;1745104;82;21545;-69
2022/02/07 09:03:29;;;;;;;;;;;;;;;1.70;100.00;97630.72;1740744;82;20551;-70
2022/02/07 09:08:26;;;;;;;;;;;;;;;1.76;100.00;97638.98;1745749;82;20180;-71
2022/02/07 09:10:50;;;;;;;;;;;;;;;1.80;100.00;97630.85;1733063;80;20204;-72
2022/02/07 09:13:18;;;;;;;;;;;;;;;1.86;100.00;97631.22;1762134;80;21238;-71
2022/02/07 09:16:05;;;;;;;;;;;;;;;1.93;100.00;97623.87;1760183;81;20202;-70
2022/02/07 09:18:24;;;;;;;;;;;;;;;1.96;100.00;97635.02;1730941;80;20137;-71
2022/02/07 09:20:54;;;;;;;;;;;;;;;2.01;100.00;97632.44;1778754;80;20243;-70
2022/02/07 09:23:20;;;;;;;;;;;;;;;2.05;100.00;97636.20;1778808;80;20641;-70
2022/02/07 09:25:46;;;;;;;;;;;;;;;2.09;100.00;97642.08;1779143;80;21166;-70
2022/02/07 09:28:13;;;;;;;;;;;;;;;2.11;100.00;97641.84;1766841;80;20153;-70
2022/02/07 09:30:40;;;;;;;;;;;;;;;2.15;100.00;97649.56;1780423;80;20440;-71
2022/02/07 09:33:07;;;;;;;;;;;;;;;2.16;100.00;97643.23;1780533;80;20463;-69
2022/02/07 09:35:35;;;;;;;;;;;;;;;2.17;100.00;97650.64;1762598;80;20094;-66
2022/02/07 09:38:02;;;;;;;;;;;;;;;2.16;100.00;97636.62;1761013;81;20833;-68
2022/02/07 09:40:30;;;;;;;;;;;;;;;2.23;100.00;97645.67;1760870;81;20086;-69
2022/02/07 09:42:59;;;;;;;;;;;;;;;2.31;100.00;97641.30;1760660;81;20427;-68
2022/02/07 09:45:37;;;;;;;;;;;;;;;2.34;100.00;97636.30;1761008;81;20151;-70
2022/02/07 09:48:04;;;;;;;;;;;;;;;2.38;100.00;97635.29;1762510;81;20174;-71
2022/02/07 09:50:30;;;;;;;;;;;;;;;2.47;100.00;97644.91;1760591;81;21087;-71
2022/02/07 09:52:57;;;;;;;;;;;;;;;2.45;100.00;97643.84;1735675;81;20659;-72
2022/02/07 09:55:23;;;;;;;;;;;;;;;2.49;100.00;97633.55;1748043;81;20159;-70
2022/02/07 09:57:52;;;;;;;;;;;;;;;2.58;100.00;97636.83;1764683;81;20164;-70
2022/02/07 10:00:25;;;;;;;;;;;;;;;2.60;100.00;97633.94;1771640;81;20236;-71
2022/02/07 10:03:02;;;;;;;;;;;;;;;2.63;100.00;97631.32;1771583;79;21419;-73
2022/02/07 10:05:23;;;;;;;;;;;;;;;2.65;100.00;97631.88;1768085;81;20259;-74
2022/02/07 10:08:03;;;;;;;;;;;;;;;2.76;100.00;97632.23;1771318;79;20211;-71
2022/02/07 10:10:30;;;;;;;;;;;;;;;2.78;100.00;97635.44;1745484;81;20097;-73
2022/02/07 10:16:05;;;;;;;;;;;;;;;2.90;100.00;97644.04;1745754;81;21101;-72
2022/02/07 10:40:26;;;;;;;;;;;;;;;2.55;100.00;97609.52;1739973;81;20147;-70
2022/02/07 10:45:53;;;;;;;;;;;;;;;2.56;100.00;97608.47;1740726;81;20076;-70
2022/02/07 10:48:39;;;;;;;;;;;;;;;2.49;100.00;97602.56;1740035;81;20167;-73
2022/02/07 10:51:11;;;;;;;;;;;;;;;2.54;100.00;97588.58;1739764;81;20083;-72
2022/02/07 10:53:45;;;;;;;;;;;;;;;2.54;100.00;97581.42;1740199;82;20123;-70
2022/02/07 10:56:13;;;;;;;;;;;;;;;2.58;100.00;97577.77;1739978;81;21161;-72
2022/02/07 10:58:40;;;;;;;;;;;;;;;2.65;100.00;97569.09;1739755;81;20170;-71
2022/02/07 11:01:13;;;;;;;;;;;;;;;2.74;100.00;97569.42;1739875;82;20080;-71
2022/02/07 11:03:51;;;;;;;;;;;;;;;2.79;100.00;97558.87;1739360;81;20084;-71
2022/02/07 11:06:07;;;;;;;;;;;;;;;2.96;100.00;97559.56;1736604;82;20178;-72
2022/02/07 11:14:08;;;;;;;;;;;;;;;3.03;100.00;97550.59;1769914;79;20542;-71
2022/02/07 11:21:48;;;;;;;;;;;;;;;3.73;100.00;97545.99;1745074;81;21184;-72
2022/02/07 11:24:28;;;;;;;;;;;;;;;4.56;100.00;97542.00;1771364;79;20118;-70
2022/02/07 11:26:51;;;;;;;;;;;;;;;5.03;100.00;97549.47;1771191;79;20142;-70
2022/02/07 11:29:38;;;;;;;;;;;;;;;5.06;100.00;97544.94;1771850;81;20153;-71
2022/02/07 11:32:06;;;;;;;;;;;;;;;5.01;100.00;97567.55;1772110;81;20125;-71
2022/02/07 11:34:44;;;;;;;;;;;;;;;5.20;100.00;97567.28;1770197;79;21142;-71
2022/02/07 11:37:21;;;;;;;;;;;;;;;5.23;100.00;97564.61;1753371;80;20163;-71
2022/02/07 11:39:48;;;;;;;;;;;;;;;5.29;100.00;97573.66;1746560;79;20099;-73
2022/02/07 11:42:15;;;;;;;;;;;;;;;5.16;100.00;97590.14;1758944;80;20170;-71
2022/02/07 11:44:48;;;;;;;;;;;;;;;5.36;100.00;97595.98;1742986;81;20096;-71
2022/02/07 11:47:29;;;;;;;;;;;;;;;5.65;100.00;97600.20;1743223;81;21139;-71
2022/02/07 11:49:59;;;;;;;;;;;;;;;5.52;100.00;97606.88;1772483;81;20443;-70
2022/02/07 11:52:37;;;;;;;;;;;;;;;5.36;100.00;97599.46;1772227;81;20133;-71
2022/02/07 11:55:12;;;;;;;;;;;;;;;5.20;100.00;97588.55;1772045;81;20177;-71
2022/02/07 11:57:52;;;;;;;;;;;;;;;5.73;100.00;97602.33;1772381;81;20181;-71
2022/02/07 12:00:17;;;;;;;;;;;;;;;5.68;100.00;97613.50;1772108;81;21222;-70
2022/02/07 12:02:49;;;;;;;;;;;;;;;5.72;100.00;97616.69;1772279;81;20140;-71
2022/02/07 12:05:21;;;;;;;;;;;;;;;5.91;100.00;97618.25;1772356;81;20482;-71
2022/02/07 12:08:06;;;;;;;;;;;;;;;5.66;100.00;97619.11;1772062;79;20473;-71
2022/02/07 12:10:39;;;;;;;;;;;;;;;5.77;100.00;97619.88;1772310;79;20145;-73
2022/02/07 12:13:36;;;;;;;;;;;;;;;5.51;100.00;97621.77;1772347;80;21750;-72
2022/02/07 12:16:05;;;;;;;;;;;;;;;5.46;100.00;97628.44;1772301;81;20494;-72
2022/02/07 12:18:33;;;;;;;;;;;;;;;5.80;100.00;97635.30;1772631;81;20101;-70
2022/02/07 12:21:15;;;;;;;;;;;;;;;5.70;100.00;97633.46;1772122;79;20185;-74
2022/02/07 12:23:41;;;;;;;;;;;;;;;5.71;100.00;97639.61;1772610;81;20082;-69
2022/02/07 12:26:12;;;;;;;;;;;;;;;5.89;100.00;97637.69;1772713;81;21144;-71
2022/02/07 12:31:20;;;;;;;;;;;;;;;6.17;100.00;97664.81;1772197;79;20086;-70
2022/02/07 12:34:01;;;;;;;;;;;;;;;6.30;100.00;97666.91;1772536;81;20074;-70
2022/02/07 12:36:33;;;;;;;;;;;;;;;6.20;100.00;97675.73;1772092;79;20128;-70
2022/02/07 12:39:01;;;;;;;;;;;;;;;6.14;100.00;97684.80;1771101;81;21223;-70
2022/02/07 12:41:29;;;;;;;;;;;;;;;6.17;100.00;97690.12;1770778;81;20185;-70
2022/02/07 12:43:58;;;;;;;;;;;;;;;6.10;100.00;97679.77;1746905;81;20187;-71
2022/02/07 12:46:26;;;;;;;;;;;;;;;5.76;100.00;97678.20;1771084;81;20614;-70
2022/02/07 12:49:10;;;;;;;;;;;;;;;5.93;100.00;97679.24;1771067;81;20179;-70
2022/02/07 12:51:30;;;;;;;;;;;;;;;5.93;100.00;97681.91;1769249;81;21869;-71
2022/02/07 12:53:56;;;;;;;;;;;;;;;5.49;100.00;97684.59;1770813;81;20509;-70
2022/02/07 12:56:23;;;;;;;;;;;;;;;5.50;100.00;97693.38;1770492;81;20112;-71
2022/02/07 12:58:51;;;;;;;;;;;;;;;5.29;100.00;97686.72;1770940;81;20161;-71
2022/02/07 13:01:24;;;;;;;;;;;;;;;4.99;100.00;97686.13;1771112;81;20203;-71
2022/02/07 13:04:04;;;;;;;;;;;;;;;4.84;100.00;97683.43;1770824;81;21156;-73
2022/02/07 13:06:37;;;;;;;;;;;;;;;4.74;100.00;97690.84;1770941;81;20177;-70
2022/02/07 13:09:29;;;;;;;;;;;;;;;4.55;100.00;97689.71;1769763;80;20163;-72
2022/02/07 13:12:04;;;;;;;;;;;;;;;4.45;100.00;97688.61;1770910;81;20144;-74
2022/02/07 13:14:31;;;;;;;;;;;;;;;4.29;100.00;97685.63;1771122;81;20210;-72
2022/02/07 13:16:58;;;;;;;;;;;;;;;4.33;100.00;97692.54;1771019;81;21134;-70
2022/02/07 13:19:27;;;;;;;;;;;;;;;4.31;100.00;97691.45;1770732;81;20112;-70
2022/02/07 13:21:54;;;;;;;;;;;;;;;4.29;100.00;97688.29;1771029;81;20113;-71
2022/02/07 13:24:23;;;;;;;;;;;;;;;4.28;100.00;97689.33;1759273;81;20174;-71
2022/02/07 13:26:53;;;;;;;;;;;;;;;4.28;100.00;97683.48;1738591;81;20288;-74
2022/02/07 13:29:31;;;;;;;;;;;;;;;4.32;100.00;97681.12;1738774;81;21146;-72
2022/02/07 13:32:01;;;;;;;;;;;;;;;4.41;100.00;97683.56;1750330;79;20144;-67
2022/02/07 13:34:28;;;;;;;;;;;;;;;4.41;100.00;97682.73;1771048;81;20242;-71
2022/02/07 13:37:16;;;;;;;;;;;;;;;4.45;100.00;97675.33;1771078;79;20463;-69
2022/02/07 13:40:05;;;;;;;;;;;;;;;4.44;100.00;97675.60;1770981;81;20124;-73
2022/02/07 13:42:36;;;;;;;;;;;;;;;4.37;100.00;97675.04;1770736;79;21801;-74
2022/02/07 13:45:13;;;;;;;;;;;;;;;4.30;100.00;97679.25;1777581;79;20143;-76
2022/02/07 13:47:43;;;;;;;;;;;;;;;4.26;100.00;97676.83;1770242;81;20227;-74
2022/02/07 13:50:18;;;;;;;;;;;;;;;4.24;100.00;97674.45;1746389;81;20782;-77
2022/02/07 13:52:50;;;;;;;;;;;;;;;4.25;100.00;97676.58;1776205;79;20220;-72
2022/02/07 13:55:29;;;;;;;;;;;;;;;4.23;100.00;97679.48;1775152;79;21549;-71
2022/02/07 13:58:05;;;;;;;;;;;;;;;4.24;100.00;97694.38;1770764;81;20128;-74
2022/02/07 14:00:38;;;;;;;;;;;;;;;4.25;100.00;97685.87;1770771;81;20144;-69
2022/02/07 14:03:08;;;;;;;;;;;;;;;4.28;100.00;97685.34;1770374;81;20196;-69
2022/02/07 14:05:38;;;;;;;;;;;;;;;4.25;100.00;97686.66;1771224;81;20151;-70
2022/02/07 14:08:06;;;;;;;;;;;;;;;4.24;100.00;97682.42;1770782;81;21775;-71
2022/02/07 14:10:37;;;;;;;;;;;;;;;4.19;100.00;97684.23;1770415;81;20129;-71
2022/02/07 14:13:04;;;;;;;;;;;;;;;4.14;100.00;97689.52;1770375;79;20148;-69
2022/02/07 14:15:30;;;;;;;;;;;;;;;4.07;100.00;97683.92;1770629;81;20717;-68
2022/02/07 14:17:57;;;;;;;;;;;;;;;4.00;100.00;97681.23;1746730;81;20192;-67
2022/02/07 14:20:30;;;;;;;;;;;;;;;3.90;100.00;97683.29;1770809;81;21140;-67
2022/02/07 14:22:52;;;;;;;;;;;;;;;3.79;100.00;97681.61;1769707;81;20141;-68
2022/02/07 14:25:18;;;;;;;;;;;;;;;3.66;100.00;97677.55;1785908;79;20491;-68
2022/02/07 14:27:46;;;;;;;;;;;;;;;3.55;100.00;97675.36;1802570;79;20465;-69
2022/02/07 14:30:14;;;;;;;;;;;;;;;3.41;100.00;97675.51;1802454;79;20742;-69
2022/02/07 14:32:41;;;;;;;;;;;;;;;3.28;100.00;97680.69;1786540;79;21179;-68
2022/02/07 14:35:08;;;;;;;;;;;;;;;3.16;100.00;97677.39;1770737;81;20148;-68
2022/02/07 14:37:34;;;;;;;;;;;;;;;3.02;100.00;97685.50;1760341;80;20114;-71
2022/02/07 14:40:01;;;;;;;;;;;;;;;2.88;100.00;97690.39;1742967;81;20504;-70
2022/02/07 14:42:27;;;;;;;;;;;;;;;2.75;100.00;97699.00;1742183;81;20611;-70
2022/02/07 14:45:12;;;;;;;;;;;;;;;2.64;100.00;97699.92;1742154;82;21142;-70
2022/02/07 14:48:10;;;;;;;;;;;;;;;2.51;100.00;97700.31;1725122;81;20098;-67
2022/02/07 14:49:53;;;;;;;;;;;;;;;2.40;100.00;97715.78;1730994;81;20424;-71
2022/02/07 14:52:21;;;;;;;;;;;;;;;2.31;100.00;97718.87;1741734;81;20503;-69
2022/02/07 14:54:47;;;;;;;;;;;;;;;2.25;100.00;97716.39;1742203;82;20094;-67
2022/02/07 14:57:14;;;;;;;;;;;;;;;2.15;100.00;97723.14;1741974;82;21131;-68
2022/02/07 14:59:42;;;;;;;;;;;;;;;2.07;100.00;97724.89;1742147;82;20149;-67
2022/02/07 15:02:09;;;;;;;;;;;;;;;2.01;100.00;97725.88;1729241;83;20144;-68
2022/02/07 15:04:37;;;;;;;;;;;;;;;1.96;100.00;97726.30;1729240;83;20148;-68
2022/02/07 15:07:04;;;;;;;;;;;;;;;1.93;100.00;97735.53;1729343;83;20137;-69
2022/02/07 15:09:31;;;;;;;;;;;;;;;1.89;100.00;97731.25;1698677;84;21116;-69
2022/02/07 15:12:00;;;;;;;;;;;;;;;1.92;100.00;97738.70;1728776;81;20202;-66
2022/02/07 15:14:26;;;;;;;;;;;;;;;1.96;100.00;97745.66;1727542;81;20129;-68
2022/02/07 15:16:53;;;;;;;;;;;;;;;1.97;100.00;97749.09;1731948;82;20541;-67
2022/02/07 15:19:20;;;;;;;;;;;;;;;1.99;100.00;97750.98;1714486;83;20212;-67
2022/02/07 15:21:47;;;;;;;;;;;;;;;1.99;100.00;97746.48;1691110;83;21151;-67
2022/02/07 15:24:13;;;;;;;;;;;;;;;1.96;100.00;97748.30;1731421;82;20164;-65
2022/02/07 15:26:45;;;;;;;;;;;;;;;1.92;100.00;97757.22;1744995;82;20144;-68
2022/02/07 15:29:14;;;;;;;;;;;;;;;1.96;100.00;97765.50;1744955;82;20112;-67
2022/02/07 15:31:47;;;;;;;;;;;;;;;1.91;100.00;97766.22;1745272;82;20196;-67
2022/02/07 15:34:09;;;;;;;;;;;;;;;1.81;100.00;97770.00;1744197;82;21243;-67